sensor_id;sensor_type;location;lat;lon;timestamp;P1;durP1;ratioP1;P2;durP2;ratioP2
25175;SDS011;13135;55.166;61.286;2022-11-20T00:00:10;5.53;;;3.77;;
25175;SDS011;13135;55.166;61.286;2022-11-20T00:02:55;8.17;;;4.27;;
25175;SDS011;13135;55.166;61.286;2022-11-20T00:05:39;6.83;;;4.27;;
25175;SDS011;13135;55.166;61.286;2022-11-20T00:08:23;5.73;;;3.40;;
25175;SDS011;13135;55.166;61.286;2022-11-20T00:11:07;5.73;;;4.30;;
25175;SDS011;13135;55.166;61.286;2022-11-20T00:13:52;4.80;;;4.20;;
25175;SDS011;13135;55.166;61.286;2022-11-20T00:16:35;3.80;;;3.50;;
25175;SDS011;13135;55.166;61.286;2022-11-20T00:19:20;4.20;;;3.80;;
25175;SDS011;13135;55.166;61.286;2022-11-20T00:22:05;3.40;;;3.20;;
25175;SDS011;13135;55.166;61.286;2022-11-20T00:24:49;7.83;;;4.07;;
25175;SDS011;13135;55.166;61.286;2022-11-20T00:27:33;4.20;;;2.83;;
25175;SDS011;13135;55.166;61.286;2022-11-20T00:30:18;5.53;;;3.77;;
25175;SDS011;13135;55.166;61.286;2022-11-20T00:33:03;6.47;;;4.73;;
25175;SDS011;13135;55.166;61.286;2022-11-20T00:35:47;2.70;;;2.60;;
25175;SDS011;13135;55.166;61.286;2022-11-20T00:38:32;6.87;;;5.13;;
25175;SDS011;13135;55.166;61.286;2022-11-20T00:41:15;4.90;;;3.50;;
25175;SDS011;13135;55.166;61.286;2022-11-20T00:44:00;6.73;;;4.83;;
25175;SDS011;13135;55.166;61.286;2022-11-20T00:46:44;4.93;;;3.43;;
25175;SDS011;13135;55.166;61.286;2022-11-20T00:49:29;5.43;;;4.23;;
25175;SDS011;13135;55.166;61.286;2022-11-20T00:52:12;4.80;;;4.37;;
25175;SDS011;13135;55.166;61.286;2022-11-20T00:54:56;6.50;;;4.07;;
25175;SDS011;13135;55.166;61.286;2022-11-20T00:57:40;3.87;;;3.57;;
25175;SDS011;13135;55.166;61.286;2022-11-20T01:00:24;4.03;;;2.70;;
25175;SDS011;13135;55.166;61.286;2022-11-20T01:03:09;8.17;;;4.93;;
25175;SDS011;13135;55.166;61.286;2022-11-20T01:05:53;4.93;;;4.07;;
25175;SDS011;13135;55.166;61.286;2022-11-20T01:08:37;3.17;;;2.83;;
25175;SDS011;13135;55.166;61.286;2022-11-20T01:11:27;3.43;;;3.13;;
25175;SDS011;13135;55.166;61.286;2022-11-20T01:14:14;4.53;;;3.00;;
25175;SDS011;13135;55.166;61.286;2022-11-20T01:16:57;8.17;;;3.73;;
25175;SDS011;13135;55.166;61.286;2022-11-20T01:19:40;6.37;;;4.23;;
25175;SDS011;13135;55.166;61.286;2022-11-20T01:22:25;6.73;;;3.60;;
25175;SDS011;13135;55.166;61.286;2022-11-20T01:25:09;6.67;;;4.60;;
25175;SDS011;13135;55.166;61.286;2022-11-20T01:27:54;5.40;;;4.00;;
25175;SDS011;13135;55.166;61.286;2022-11-20T01:30:38;4.27;;;3.50;;
25175;SDS011;13135;55.166;61.286;2022-11-20T01:33:21;7.20;;;3.80;;
25175;SDS011;13135;55.166;61.286;2022-11-20T01:36:05;3.73;;;3.27;;
25175;SDS011;13135;55.166;61.286;2022-11-20T01:38:53;3.43;;;2.87;;
25175;SDS011;13135;55.166;61.286;2022-11-20T01:41:36;4.37;;;4.00;;
25175;SDS011;13135;55.166;61.286;2022-11-20T01:44:22;4.67;;;4.27;;
25175;SDS011;13135;55.166;61.286;2022-11-20T01:47:06;3.10;;;2.90;;
25175;SDS011;13135;55.166;61.286;2022-11-20T01:49:53;7.00;;;3.73;;
25175;SDS011;13135;55.166;61.286;2022-11-20T01:52:40;3.73;;;3.43;;
25175;SDS011;13135;55.166;61.286;2022-11-20T01:55:24;3.37;;;3.07;;
25175;SDS011;13135;55.166;61.286;2022-11-20T01:58:07;6.47;;;3.27;;
25175;SDS011;13135;55.166;61.286;2022-11-20T02:00:52;3.53;;;3.00;;
25175;SDS011;13135;55.166;61.286;2022-11-20T02:03:37;5.57;;;4.20;;
25175;SDS011;13135;55.166;61.286;2022-11-20T02:06:23;3.83;;;3.43;;
25175;SDS011;13135;55.166;61.286;2022-11-20T02:09:07;4.77;;;4.07;;
25175;SDS011;13135;55.166;61.286;2022-11-20T02:11:52;5.00;;;3.50;;
25175;SDS011;13135;55.166;61.286;2022-11-20T02:14:37;4.67;;;4.10;;
25175;SDS011;13135;55.166;61.286;2022-11-20T02:17:21;4.10;;;3.23;;
25175;SDS011;13135;55.166;61.286;2022-11-20T02:20:06;2.20;;;2.00;;
25175;SDS011;13135;55.166;61.286;2022-11-20T02:22:55;9.43;;;3.90;;
25175;SDS011;13135;55.166;61.286;2022-11-20T02:25:41;5.80;;;3.83;;
25175;SDS011;13135;55.166;61.286;2022-11-20T02:28:25;3.93;;;3.53;;
25175;SDS011;13135;55.166;61.286;2022-11-20T02:31:09;4.67;;;4.13;;
25175;SDS011;13135;55.166;61.286;2022-11-20T02:33:54;4.10;;;3.27;;
25175;SDS011;13135;55.166;61.286;2022-11-20T02:36:38;3.00;;;2.80;;
25175;SDS011;13135;55.166;61.286;2022-11-20T02:39:24;4.73;;;3.83;;
25175;SDS011;13135;55.166;61.286;2022-11-20T02:42:05;3.90;;;2.83;;
25175;SDS011;13135;55.166;61.286;2022-11-20T02:44:49;4.47;;;3.73;;
25175;SDS011;13135;55.166;61.286;2022-11-20T02:47:33;9.37;;;3.70;;
25175;SDS011;13135;55.166;61.286;2022-11-20T02:50:18;3.87;;;3.37;;
25175;SDS011;13135;55.166;61.286;2022-11-20T02:53:02;4.50;;;4.10;;
25175;SDS011;13135;55.166;61.286;2022-11-20T02:55:45;4.67;;;3.57;;
25175;SDS011;13135;55.166;61.286;2022-11-20T02:58:29;6.17;;;3.63;;
25175;SDS011;13135;55.166;61.286;2022-11-20T03:01:14;3.33;;;3.03;;
25175;SDS011;13135;55.166;61.286;2022-11-20T03:03:58;3.53;;;3.30;;
25175;SDS011;13135;55.166;61.286;2022-11-20T03:06:43;5.53;;;3.83;;
25175;SDS011;13135;55.166;61.286;2022-11-20T03:09:29;6.93;;;3.07;;
25175;SDS011;13135;55.166;61.286;2022-11-20T03:12:13;6.73;;;3.43;;
25175;SDS011;13135;55.166;61.286;2022-11-20T03:14:57;5.93;;;4.70;;
25175;SDS011;13135;55.166;61.286;2022-11-20T03:17:41;5.93;;;4.40;;
25175;SDS011;13135;55.166;61.286;2022-11-20T03:20:32;7.90;;;4.43;;
25175;SDS011;13135;55.166;61.286;2022-11-20T03:23:21;9.10;;;4.47;;
25175;SDS011;13135;55.166;61.286;2022-11-20T03:26:09;2.87;;;2.63;;
25175;SDS011;13135;55.166;61.286;2022-11-20T03:28:58;3.13;;;2.83;;
25175;SDS011;13135;55.166;61.286;2022-11-20T03:31:40;4.77;;;4.30;;
25175;SDS011;13135;55.166;61.286;2022-11-20T03:34:26;6.87;;;4.73;;
25175;SDS011;13135;55.166;61.286;2022-11-20T03:37:15;6.40;;;3.17;;
25175;SDS011;13135;55.166;61.286;2022-11-20T03:40:07;15.03;;;4.97;;
25175;SDS011;13135;55.166;61.286;2022-11-20T03:42:53;5.67;;;4.87;;
25175;SDS011;13135;55.166;61.286;2022-11-20T03:45:40;6.17;;;3.30;;
25175;SDS011;13135;55.166;61.286;2022-11-20T03:48:31;6.00;;;4.93;;
25175;SDS011;13135;55.166;61.286;2022-11-20T03:51:18;4.33;;;3.93;;
25175;SDS011;13135;55.166;61.286;2022-11-20T03:54:03;4.07;;;3.67;;
25175;SDS011;13135;55.166;61.286;2022-11-20T03:56:47;3.40;;;3.10;;
25175;SDS011;13135;55.166;61.286;2022-11-20T03:59:36;5.83;;;3.70;;
25175;SDS011;13135;55.166;61.286;2022-11-20T04:12:53;10.27;;;6.33;;
25175;SDS011;13135;55.166;61.286;2022-11-20T04:15:38;5.03;;;4.53;;
25175;SDS011;13135;55.166;61.286;2022-11-20T04:18:24;7.93;;;4.80;;
25175;SDS011;13135;55.166;61.286;2022-11-20T04:21:14;5.40;;;4.47;;
25175;SDS011;13135;55.166;61.286;2022-11-20T04:24:03;7.67;;;4.50;;
25175;SDS011;13135;55.166;61.286;2022-11-20T04:26:47;5.27;;;4.60;;
25175;SDS011;13135;55.166;61.286;2022-11-20T04:29:39;4.20;;;3.70;;
25175;SDS011;13135;55.166;61.286;2022-11-20T04:32:23;4.17;;;2.93;;
25175;SDS011;13135;55.166;61.286;2022-11-20T04:35:13;5.33;;;3.20;;
25175;SDS011;13135;55.166;61.286;2022-11-20T04:38:03;6.33;;;3.97;;
25175;SDS011;13135;55.166;61.286;2022-11-20T04:41:00;5.03;;;3.80;;
25175;SDS011;13135;55.166;61.286;2022-11-20T04:43:46;3.37;;;2.50;;
25175;SDS011;13135;55.166;61.286;2022-11-20T04:46:36;4.53;;;4.13;;
25175;SDS011;13135;55.166;61.286;2022-11-20T04:49:26;8.87;;;3.60;;
25175;SDS011;13135;55.166;61.286;2022-11-20T04:52:11;4.67;;;4.10;;
25175;SDS011;13135;55.166;61.286;2022-11-20T04:55:03;6.20;;;4.57;;
25175;SDS011;13135;55.166;61.286;2022-11-20T04:57:49;7.93;;;5.00;;
25175;SDS011;13135;55.166;61.286;2022-11-20T05:00:33;4.77;;;4.37;;
25175;SDS011;13135;55.166;61.286;2022-11-20T05:03:28;7.13;;;4.17;;
25175;SDS011;13135;55.166;61.286;2022-11-20T05:06:14;5.23;;;3.90;;
25175;SDS011;13135;55.166;61.286;2022-11-20T05:08:58;4.30;;;3.60;;
25175;SDS011;13135;55.166;61.286;2022-11-20T05:11:42;5.33;;;4.10;;
25175;SDS011;13135;55.166;61.286;2022-11-20T05:14:26;4.73;;;3.80;;
25175;SDS011;13135;55.166;61.286;2022-11-20T05:17:11;7.97;;;3.53;;
25175;SDS011;13135;55.166;61.286;2022-11-20T05:19:55;5.93;;;4.07;;
25175;SDS011;13135;55.166;61.286;2022-11-20T05:22:40;4.53;;;3.27;;
25175;SDS011;13135;55.166;61.286;2022-11-20T05:25:24;7.30;;;4.17;;
25175;SDS011;13135;55.166;61.286;2022-11-20T05:28:09;4.43;;;4.10;;
25175;SDS011;13135;55.166;61.286;2022-11-20T05:30:54;9.87;;;4.10;;
25175;SDS011;13135;55.166;61.286;2022-11-20T05:33:39;5.03;;;3.13;;
25175;SDS011;13135;55.166;61.286;2022-11-20T05:36:24;4.40;;;3.83;;
25175;SDS011;13135;55.166;61.286;2022-11-20T05:39:08;7.07;;;6.40;;
25175;SDS011;13135;55.166;61.286;2022-11-20T05:41:53;8.40;;;4.60;;
25175;SDS011;13135;55.166;61.286;2022-11-20T05:44:41;5.37;;;4.20;;
25175;SDS011;13135;55.166;61.286;2022-11-20T05:47:31;4.23;;;3.40;;
25175;SDS011;13135;55.166;61.286;2022-11-20T05:50:13;6.90;;;3.90;;
25175;SDS011;13135;55.166;61.286;2022-11-20T05:52:58;3.50;;;3.20;;
25175;SDS011;13135;55.166;61.286;2022-11-20T05:55:42;5.70;;;4.53;;
25175;SDS011;13135;55.166;61.286;2022-11-20T05:58:26;13.07;;;4.27;;
25175;SDS011;13135;55.166;61.286;2022-11-20T06:01:14;5.00;;;2.83;;
25175;SDS011;13135;55.166;61.286;2022-11-20T06:03:58;4.83;;;4.43;;
25175;SDS011;13135;55.166;61.286;2022-11-20T06:06:43;7.13;;;4.53;;
25175;SDS011;13135;55.166;61.286;2022-11-20T06:09:29;5.30;;;3.47;;
25175;SDS011;13135;55.166;61.286;2022-11-20T06:12:13;8.67;;;4.93;;
25175;SDS011;13135;55.166;61.286;2022-11-20T06:15:05;4.13;;;3.73;;
25175;SDS011;13135;55.166;61.286;2022-11-20T06:17:52;10.13;;;4.93;;
25175;SDS011;13135;55.166;61.286;2022-11-20T06:20:36;7.63;;;5.13;;
25175;SDS011;13135;55.166;61.286;2022-11-20T06:23:27;6.93;;;5.80;;
25175;SDS011;13135;55.166;61.286;2022-11-20T06:26:11;10.07;;;5.30;;
25175;SDS011;13135;55.166;61.286;2022-11-20T06:28:56;6.87;;;4.63;;
25175;SDS011;13135;55.166;61.286;2022-11-20T06:31:41;7.60;;;4.60;;
25175;SDS011;13135;55.166;61.286;2022-11-20T06:34:34;6.80;;;4.60;;
25175;SDS011;13135;55.166;61.286;2022-11-20T06:37:19;11.47;;;5.13;;
25175;SDS011;13135;55.166;61.286;2022-11-20T06:40:04;6.23;;;4.17;;
25175;SDS011;13135;55.166;61.286;2022-11-20T06:42:50;5.10;;;3.77;;
25175;SDS011;13135;55.166;61.286;2022-11-20T06:45:35;8.17;;;5.03;;
25175;SDS011;13135;55.166;61.286;2022-11-20T06:48:21;6.00;;;4.47;;
25175;SDS011;13135;55.166;61.286;2022-11-20T06:51:06;8.13;;;5.77;;
25175;SDS011;13135;55.166;61.286;2022-11-20T06:53:50;4.70;;;3.93;;
25175;SDS011;13135;55.166;61.286;2022-11-20T06:56:34;4.47;;;3.73;;
25175;SDS011;13135;55.166;61.286;2022-11-20T06:59:18;5.70;;;4.63;;
25175;SDS011;13135;55.166;61.286;2022-11-20T07:02:11;8.73;;;4.20;;
25175;SDS011;13135;55.166;61.286;2022-11-20T07:04:58;6.33;;;4.63;;
25175;SDS011;13135;55.166;61.286;2022-11-20T07:07:43;9.37;;;4.93;;
25175;SDS011;13135;55.166;61.286;2022-11-20T07:10:27;6.27;;;5.67;;
25175;SDS011;13135;55.166;61.286;2022-11-20T07:13:11;6.83;;;4.70;;
25175;SDS011;13135;55.166;61.286;2022-11-20T07:15:58;9.37;;;4.50;;
25175;SDS011;13135;55.166;61.286;2022-11-20T07:18:39;5.40;;;4.80;;
25175;SDS011;13135;55.166;61.286;2022-11-20T07:21:23;11.63;;;5.83;;
25175;SDS011;13135;55.166;61.286;2022-11-20T07:24:08;8.57;;;5.43;;
25175;SDS011;13135;55.166;61.286;2022-11-20T07:26:53;7.53;;;4.90;;
25175;SDS011;13135;55.166;61.286;2022-11-20T07:29:38;7.37;;;4.37;;
25175;SDS011;13135;55.166;61.286;2022-11-20T07:32:23;7.37;;;3.90;;
25175;SDS011;13135;55.166;61.286;2022-11-20T07:35:05;10.13;;;5.23;;
25175;SDS011;13135;55.166;61.286;2022-11-20T07:37:50;7.57;;;5.50;;
25175;SDS011;13135;55.166;61.286;2022-11-20T07:40:36;5.87;;;4.20;;
25175;SDS011;13135;55.166;61.286;2022-11-20T07:43:19;13.60;;;7.43;;
25175;SDS011;13135;55.166;61.286;2022-11-20T07:46:06;13.17;;;5.50;;
25175;SDS011;13135;55.166;61.286;2022-11-20T07:48:50;10.10;;;5.73;;
25175;SDS011;13135;55.166;61.286;2022-11-20T07:51:34;12.67;;;6.17;;
25175;SDS011;13135;55.166;61.286;2022-11-20T07:54:19;8.07;;;5.60;;
25175;SDS011;13135;55.166;61.286;2022-11-20T07:57:04;14.03;;;7.37;;
25175;SDS011;13135;55.166;61.286;2022-11-20T07:59:48;13.27;;;6.70;;
25175;SDS011;13135;55.166;61.286;2022-11-20T08:02:32;14.07;;;7.07;;
25175;SDS011;13135;55.166;61.286;2022-11-20T08:05:17;12.87;;;7.77;;
25175;SDS011;13135;55.166;61.286;2022-11-20T08:08:03;12.37;;;7.27;;
25175;SDS011;13135;55.166;61.286;2022-11-20T08:10:49;10.43;;;5.30;;
25175;SDS011;13135;55.166;61.286;2022-11-20T08:13:30;10.83;;;5.40;;
25175;SDS011;13135;55.166;61.286;2022-11-20T08:16:11;12.87;;;5.60;;
25175;SDS011;13135;55.166;61.286;2022-11-20T08:18:56;13.30;;;6.20;;
25175;SDS011;13135;55.166;61.286;2022-11-20T08:21:40;12.60;;;6.17;;
25175;SDS011;13135;55.166;61.286;2022-11-20T08:24:24;12.73;;;6.77;;
25175;SDS011;13135;55.166;61.286;2022-11-20T08:27:09;11.83;;;5.93;;
25175;SDS011;13135;55.166;61.286;2022-11-20T08:29:54;9.97;;;5.40;;
25175;SDS011;13135;55.166;61.286;2022-11-20T08:32:39;12.37;;;6.40;;
25175;SDS011;13135;55.166;61.286;2022-11-20T08:35:24;14.90;;;6.37;;
25175;SDS011;13135;55.166;61.286;2022-11-20T08:38:09;11.77;;;6.73;;
25175;SDS011;13135;55.166;61.286;2022-11-20T08:40:57;18.17;;;8.30;;
25175;SDS011;13135;55.166;61.286;2022-11-20T08:43:41;12.87;;;7.20;;
25175;SDS011;13135;55.166;61.286;2022-11-20T08:46:31;13.40;;;7.23;;
25175;SDS011;13135;55.166;61.286;2022-11-20T08:49:14;11.77;;;6.77;;
25175;SDS011;13135;55.166;61.286;2022-11-20T08:51:57;16.37;;;8.00;;
25175;SDS011;13135;55.166;61.286;2022-11-20T08:54:38;12.97;;;7.13;;
25175;SDS011;13135;55.166;61.286;2022-11-20T08:57:23;11.87;;;7.27;;
25175;SDS011;13135;55.166;61.286;2022-11-20T09:00:09;14.50;;;7.93;;
25175;SDS011;13135;55.166;61.286;2022-11-20T09:03:01;11.73;;;6.57;;
25175;SDS011;13135;55.166;61.286;2022-11-20T09:05:45;16.00;;;8.00;;
25175;SDS011;13135;55.166;61.286;2022-11-20T09:08:26;12.43;;;5.80;;
25175;SDS011;13135;55.166;61.286;2022-11-20T09:11:10;18.87;;;7.40;;
25175;SDS011;13135;55.166;61.286;2022-11-20T09:13:54;10.87;;;6.63;;
25175;SDS011;13135;55.166;61.286;2022-11-20T09:16:38;10.50;;;6.83;;
25175;SDS011;13135;55.166;61.286;2022-11-20T09:19:19;16.47;;;6.83;;
25175;SDS011;13135;55.166;61.286;2022-11-20T09:22:04;14.37;;;7.37;;
25175;SDS011;13135;55.166;61.286;2022-11-20T09:24:48;14.87;;;7.63;;
25175;SDS011;13135;55.166;61.286;2022-11-20T09:27:31;14.67;;;6.90;;
25175;SDS011;13135;55.166;61.286;2022-11-20T09:30:17;12.30;;;6.13;;
25175;SDS011;13135;55.166;61.286;2022-11-20T09:33:03;12.50;;;6.97;;
25175;SDS011;13135;55.166;61.286;2022-11-20T09:35:47;13.57;;;7.00;;
25175;SDS011;13135;55.166;61.286;2022-11-20T09:38:32;11.90;;;6.97;;
25175;SDS011;13135;55.166;61.286;2022-11-20T09:41:28;13.43;;;6.83;;
25175;SDS011;13135;55.166;61.286;2022-11-20T09:44:17;14.10;;;6.67;;
25175;SDS011;13135;55.166;61.286;2022-11-20T09:47:03;15.50;;;8.27;;
25175;SDS011;13135;55.166;61.286;2022-11-20T09:49:53;14.13;;;7.63;;
25175;SDS011;13135;55.166;61.286;2022-11-20T09:52:56;12.37;;;6.77;;
25175;SDS011;13135;55.166;61.286;2022-11-20T09:55:39;14.67;;;7.80;;
25175;SDS011;13135;55.166;61.286;2022-11-20T09:58:31;13.77;;;7.97;;
25175;SDS011;13135;55.166;61.286;2022-11-20T10:01:18;14.13;;;7.90;;
25175;SDS011;13135;55.166;61.286;2022-11-20T10:04:04;16.87;;;7.90;;
25175;SDS011;13135;55.166;61.286;2022-11-20T10:06:53;15.07;;;7.97;;
25175;SDS011;13135;55.166;61.286;2022-11-20T10:09:40;21.33;;;10.80;;
25175;SDS011;13135;55.166;61.286;2022-11-20T10:12:28;18.90;;;10.80;;
25175;SDS011;13135;55.166;61.286;2022-11-20T10:15:33;12.97;;;8.10;;
25175;SDS011;13135;55.166;61.286;2022-11-20T10:21:11;14.27;;;8.13;;
25175;SDS011;13135;55.166;61.286;2022-11-20T10:24:08;15.60;;;8.00;;
25175;SDS011;13135;55.166;61.286;2022-11-20T10:27:03;13.87;;;8.07;;
25175;SDS011;13135;55.166;61.286;2022-11-20T10:29:45;15.87;;;7.70;;
25175;SDS011;13135;55.166;61.286;2022-11-20T10:32:32;16.83;;;7.90;;
25175;SDS011;13135;55.166;61.286;2022-11-20T10:35:26;14.20;;;7.47;;
25175;SDS011;13135;55.166;61.286;2022-11-20T10:38:18;13.07;;;7.47;;
25175;SDS011;13135;55.166;61.286;2022-11-20T10:41:02;18.10;;;8.80;;
25175;SDS011;13135;55.166;61.286;2022-11-20T10:43:44;21.03;;;10.47;;
25175;SDS011;13135;55.166;61.286;2022-11-20T10:46:25;13.17;;;7.73;;
25175;SDS011;13135;55.166;61.286;2022-11-20T10:49:16;16.20;;;8.50;;
25175;SDS011;13135;55.166;61.286;2022-11-20T10:52:05;21.43;;;10.57;;
25175;SDS011;13135;55.166;61.286;2022-11-20T11:00:43;18.27;;;9.23;;
25175;SDS011;13135;55.166;61.286;2022-11-20T11:03:27;15.47;;;8.07;;
25175;SDS011;13135;55.166;61.286;2022-11-20T11:06:19;18.17;;;8.13;;
25175;SDS011;13135;55.166;61.286;2022-11-20T11:09:11;16.03;;;7.70;;
25175;SDS011;13135;55.166;61.286;2022-11-20T11:11:53;15.53;;;7.83;;
25175;SDS011;13135;55.166;61.286;2022-11-20T11:14:43;14.57;;;6.97;;
25175;SDS011;13135;55.166;61.286;2022-11-20T11:17:33;14.30;;;7.70;;
25175;SDS011;13135;55.166;61.286;2022-11-20T11:20:21;13.80;;;7.17;;
25175;SDS011;13135;55.166;61.286;2022-11-20T11:23:04;14.50;;;6.90;;
25175;SDS011;13135;55.166;61.286;2022-11-20T11:25:55;15.43;;;7.60;;
25175;SDS011;13135;55.166;61.286;2022-11-20T11:28:31;16.43;;;7.93;;
25175;SDS011;13135;55.166;61.286;2022-11-20T11:31:22;12.33;;;6.13;;
25175;SDS011;13135;55.166;61.286;2022-11-20T11:34:08;12.73;;;7.67;;
25175;SDS011;13135;55.166;61.286;2022-11-20T11:36:55;13.87;;;7.67;;
25175;SDS011;13135;55.166;61.286;2022-11-20T11:39:40;12.67;;;5.80;;
25175;SDS011;13135;55.166;61.286;2022-11-20T11:42:34;18.83;;;8.17;;
25175;SDS011;13135;55.166;61.286;2022-11-20T11:45:19;9.63;;;6.30;;
25175;SDS011;13135;55.166;61.286;2022-11-20T11:48:07;15.77;;;8.47;;
25175;SDS011;13135;55.166;61.286;2022-11-20T11:50:56;13.10;;;7.93;;
25175;SDS011;13135;55.166;61.286;2022-11-20T11:53:40;14.57;;;7.07;;
25175;SDS011;13135;55.166;61.286;2022-11-20T11:56:25;19.27;;;7.07;;
25175;SDS011;13135;55.166;61.286;2022-11-20T11:59:12;13.10;;;8.00;;
25175;SDS011;13135;55.166;61.286;2022-11-20T12:01:57;14.63;;;8.60;;
25175;SDS011;13135;55.166;61.286;2022-11-20T12:04:43;15.87;;;6.03;;
25175;SDS011;13135;55.166;61.286;2022-11-20T12:07:38;12.50;;;7.33;;
25175;SDS011;13135;55.166;61.286;2022-11-20T12:10:34;14.30;;;8.53;;
25175;SDS011;13135;55.166;61.286;2022-11-20T12:16:33;10.90;;;6.40;;
25175;SDS011;13135;55.166;61.286;2022-11-20T12:19:18;12.60;;;6.27;;
25175;SDS011;13135;55.166;61.286;2022-11-20T12:22:05;13.83;;;6.77;;
25175;SDS011;13135;55.166;61.286;2022-11-20T12:24:55;16.00;;;8.63;;
25175;SDS011;13135;55.166;61.286;2022-11-20T12:31:09;12.83;;;7.47;;
25175;SDS011;13135;55.166;61.286;2022-11-20T12:33:59;16.37;;;8.80;;
25175;SDS011;13135;55.166;61.286;2022-11-20T12:39:34;10.90;;;6.23;;
25175;SDS011;13135;55.166;61.286;2022-11-20T12:42:40;12.30;;;7.43;;
25175;SDS011;13135;55.166;61.286;2022-11-20T12:45:28;11.37;;;7.23;;
25175;SDS011;13135;55.166;61.286;2022-11-20T12:48:36;8.90;;;6.80;;
25175;SDS011;13135;55.166;61.286;2022-11-20T12:51:31;11.77;;;6.27;;
25175;SDS011;13135;55.166;61.286;2022-11-20T12:57:43;13.73;;;4.67;;
25175;SDS011;13135;55.166;61.286;2022-11-20T13:00:28;10.07;;;6.80;;
25175;SDS011;13135;55.166;61.286;2022-11-20T13:03:21;14.43;;;7.30;;
25175;SDS011;13135;55.166;61.286;2022-11-20T13:06:13;8.13;;;5.73;;
25175;SDS011;13135;55.166;61.286;2022-11-20T13:08:57;8.97;;;5.17;;
25175;SDS011;13135;55.166;61.286;2022-11-20T13:11:44;11.10;;;6.97;;
25175;SDS011;13135;55.166;61.286;2022-11-20T13:17:33;11.80;;;6.33;;
25175;SDS011;13135;55.166;61.286;2022-11-20T13:20:16;11.33;;;6.80;;
25175;SDS011;13135;55.166;61.286;2022-11-20T13:22:59;10.33;;;6.27;;
25175;SDS011;13135;55.166;61.286;2022-11-20T13:25:44;14.87;;;6.30;;
25175;SDS011;13135;55.166;61.286;2022-11-20T13:28:29;10.27;;;5.97;;
25175;SDS011;13135;55.166;61.286;2022-11-20T13:34:09;9.07;;;5.60;;
25175;SDS011;13135;55.166;61.286;2022-11-20T13:36:53;8.17;;;5.83;;
25175;SDS011;13135;55.166;61.286;2022-11-20T13:39:37;9.83;;;5.93;;
25175;SDS011;13135;55.166;61.286;2022-11-20T13:42:25;11.43;;;6.10;;
25175;SDS011;13135;55.166;61.286;2022-11-20T13:45:09;9.63;;;6.60;;
25175;SDS011;13135;55.166;61.286;2022-11-20T13:47:53;8.27;;;5.93;;
25175;SDS011;13135;55.166;61.286;2022-11-20T13:50:40;8.20;;;5.67;;
25175;SDS011;13135;55.166;61.286;2022-11-20T13:53:30;11.87;;;7.13;;
25175;SDS011;13135;55.166;61.286;2022-11-20T13:56:34;15.50;;;7.07;;
25175;SDS011;13135;55.166;61.286;2022-11-20T14:02:50;10.30;;;6.37;;
25175;SDS011;13135;55.166;61.286;2022-11-20T14:06:02;11.93;;;7.47;;
25175;SDS011;13135;55.166;61.286;2022-11-20T14:08:46;11.10;;;5.73;;
25175;SDS011;13135;55.166;61.286;2022-11-20T14:11:29;9.80;;;6.20;;
25175;SDS011;13135;55.166;61.286;2022-11-20T14:14:16;12.77;;;5.27;;
25175;SDS011;13135;55.166;61.286;2022-11-20T14:17:06;11.87;;;6.53;;
25175;SDS011;13135;55.166;61.286;2022-11-20T14:19:53;12.17;;;6.80;;
25175;SDS011;13135;55.166;61.286;2022-11-20T14:22:37;12.63;;;6.70;;
25175;SDS011;13135;55.166;61.286;2022-11-20T14:25:22;9.60;;;6.43;;
25175;SDS011;13135;55.166;61.286;2022-11-20T14:28:06;10.07;;;6.10;;
25175;SDS011;13135;55.166;61.286;2022-11-20T14:30:47;14.57;;;7.23;;
25175;SDS011;13135;55.166;61.286;2022-11-20T14:33:31;13.00;;;7.40;;
25175;SDS011;13135;55.166;61.286;2022-11-20T14:36:18;18.80;;;8.07;;
25175;SDS011;13135;55.166;61.286;2022-11-20T14:39:01;14.37;;;7.80;;
25175;SDS011;13135;55.166;61.286;2022-11-20T14:41:51;10.30;;;7.43;;
25175;SDS011;13135;55.166;61.286;2022-11-20T14:44:37;15.80;;;9.77;;
25175;SDS011;13135;55.166;61.286;2022-11-20T14:47:22;17.63;;;10.20;;
25175;SDS011;13135;55.166;61.286;2022-11-20T14:50:12;16.30;;;9.03;;
25175;SDS011;13135;55.166;61.286;2022-11-20T14:52:52;18.37;;;10.10;;
25175;SDS011;13135;55.166;61.286;2022-11-20T14:55:36;18.03;;;8.87;;
25175;SDS011;13135;55.166;61.286;2022-11-20T14:58:20;18.80;;;8.27;;
25175;SDS011;13135;55.166;61.286;2022-11-20T15:01:05;14.73;;;8.77;;
25175;SDS011;13135;55.166;61.286;2022-11-20T15:03:47;14.53;;;8.87;;
25175;SDS011;13135;55.166;61.286;2022-11-20T15:06:31;13.60;;;8.67;;
25175;SDS011;13135;55.166;61.286;2022-11-20T15:09:15;12.10;;;6.60;;
25175;SDS011;13135;55.166;61.286;2022-11-20T15:12:01;16.03;;;7.93;;
25175;SDS011;13135;55.166;61.286;2022-11-20T15:14:45;18.43;;;10.37;;
25175;SDS011;13135;55.166;61.286;2022-11-20T15:17:29;19.73;;;8.53;;
25175;SDS011;13135;55.166;61.286;2022-11-20T15:20:14;14.57;;;9.53;;
25175;SDS011;13135;55.166;61.286;2022-11-20T15:22:58;16.13;;;8.73;;
25175;SDS011;13135;55.166;61.286;2022-11-20T15:25:41;9.90;;;5.80;;
25175;SDS011;13135;55.166;61.286;2022-11-20T15:28:30;14.83;;;8.57;;
25175;SDS011;13135;55.166;61.286;2022-11-20T15:31:17;12.43;;;8.63;;
25175;SDS011;13135;55.166;61.286;2022-11-20T15:34:01;17.77;;;11.13;;
25175;SDS011;13135;55.166;61.286;2022-11-20T15:36:45;14.20;;;8.97;;
25175;SDS011;13135;55.166;61.286;2022-11-20T15:39:29;15.67;;;7.50;;
25175;SDS011;13135;55.166;61.286;2022-11-20T15:42:13;12.80;;;8.07;;
25175;SDS011;13135;55.166;61.286;2022-11-20T15:44:57;11.33;;;7.37;;
25175;SDS011;13135;55.166;61.286;2022-11-20T15:47:41;18.20;;;10.73;;
25175;SDS011;13135;55.166;61.286;2022-11-20T15:50:29;13.63;;;7.23;;
25175;SDS011;13135;55.166;61.286;2022-11-20T15:53:12;15.47;;;7.83;;
25175;SDS011;13135;55.166;61.286;2022-11-20T15:55:57;69.63;;;31.57;;
25175;SDS011;13135;55.166;61.286;2022-11-20T15:58:41;15.37;;;8.67;;
25175;SDS011;13135;55.166;61.286;2022-11-20T16:01:25;16.17;;;8.87;;
25175;SDS011;13135;55.166;61.286;2022-11-20T16:04:11;11.23;;;7.10;;
25175;SDS011;13135;55.166;61.286;2022-11-20T16:06:56;11.07;;;7.37;;
25175;SDS011;13135;55.166;61.286;2022-11-20T16:09:45;11.17;;;6.87;;
25175;SDS011;13135;55.166;61.286;2022-11-20T16:12:32;10.83;;;6.63;;
25175;SDS011;13135;55.166;61.286;2022-11-20T16:15:17;14.57;;;7.90;;
25175;SDS011;13135;55.166;61.286;2022-11-20T16:18:02;25.93;;;15.57;;
25175;SDS011;13135;55.166;61.286;2022-11-20T16:20:47;15.80;;;7.60;;
25175;SDS011;13135;55.166;61.286;2022-11-20T16:23:31;13.53;;;7.83;;
25175;SDS011;13135;55.166;61.286;2022-11-20T16:26:12;11.63;;;7.83;;
25175;SDS011;13135;55.166;61.286;2022-11-20T16:28:58;12.70;;;8.57;;
25175;SDS011;13135;55.166;61.286;2022-11-20T16:31:44;11.20;;;7.70;;
25175;SDS011;13135;55.166;61.286;2022-11-20T16:34:29;13.20;;;9.20;;
25175;SDS011;13135;55.166;61.286;2022-11-20T16:37:16;12.63;;;7.33;;
25175;SDS011;13135;55.166;61.286;2022-11-20T16:40:01;7.17;;;6.37;;
25175;SDS011;13135;55.166;61.286;2022-11-20T16:42:44;16.47;;;9.63;;
25175;SDS011;13135;55.166;61.286;2022-11-20T16:45:29;14.63;;;7.77;;
25175;SDS011;13135;55.166;61.286;2022-11-20T16:48:14;11.73;;;8.27;;
25175;SDS011;13135;55.166;61.286;2022-11-20T16:50:57;10.73;;;4.73;;
25175;SDS011;13135;55.166;61.286;2022-11-20T16:53:41;10.10;;;6.43;;
25175;SDS011;13135;55.166;61.286;2022-11-20T16:56:25;11.23;;;5.80;;
25175;SDS011;13135;55.166;61.286;2022-11-20T16:59:09;12.43;;;8.03;;